createdAt,value
2023-04-15T00:00:58.197Z,61.58
2023-04-15T00:03:27.011Z,61.08
2023-04-15T00:05:55.041Z,59.65
2023-04-15T00:08:25.182Z,53.28
2023-04-15T00:10:53.308Z,54.33
2023-04-15T00:13:21.149Z,48.08
2023-04-15T00:15:49.380Z,56.13
2023-04-15T00:18:17.350Z,49.35
2023-04-15T00:20:48.550Z,53.92
2023-04-15T00:23:17.583Z,48.63
2023-04-15T00:25:45.294Z,46.13
2023-04-15T00:28:13.217Z,50.15
2023-04-15T00:30:41.900Z,54.30
2023-04-15T00:33:11.118Z,55.10
2023-04-15T00:35:39.103Z,55.47
2023-04-15T00:38:07.722Z,53.30
2023-04-15T00:40:35.927Z,53.67
2023-04-15T00:43:03.767Z,51.03
2023-04-15T00:45:32.526Z,57.25
2023-04-15T00:48:00.993Z,55.80
2023-04-15T00:50:28.844Z,55.60
2023-04-15T00:52:57.785Z,56.30
2023-04-15T00:55:26.799Z,55.20
2023-04-15T00:58:06.081Z,54.60
2023-04-15T01:00:34.520Z,51.65
2023-04-15T01:03:03.634Z,53.53
2023-04-15T01:05:32.033Z,56.03
2023-04-15T01:08:00.650Z,53.85
2023-04-15T01:10:29.868Z,51.47
2023-04-15T01:13:01.299Z,53.03
2023-04-15T01:15:30.244Z,49.55
2023-04-15T01:17:59.642Z,58.30
2023-04-15T01:20:27.758Z,54.80
2023-04-15T01:22:58.034Z,51.50
2023-04-15T01:25:29.573Z,51.35
2023-04-15T01:28:00.019Z,53.00
2023-04-15T01:30:32.680Z,51.28
2023-04-15T01:33:01.334Z,55.10
2023-04-15T01:35:37.613Z,49.42
2023-04-15T01:38:05.578Z,59.17
2023-04-15T01:40:34.041Z,55.13
2023-04-15T01:43:09.464Z,55.35
2023-04-15T01:45:39.843Z,55.17
2023-04-15T01:48:07.818Z,58.10
2023-04-15T01:50:37.882Z,53.05
2023-04-15T01:53:08.239Z,51.25
2023-04-15T01:55:52.018Z,55.67
2023-04-15T01:58:20.065Z,51.65
2023-04-15T02:00:49.363Z,52.55
2023-04-15T02:03:22.287Z,51.08
2023-04-15T02:05:51.805Z,54.35
2023-04-15T02:08:19.386Z,57.30
2023-04-15T02:10:47.622Z,59.22
2023-04-15T02:13:15.891Z,55.25
2023-04-15T02:15:43.594Z,52.10
2023-04-15T02:18:11.619Z,56.15
2023-04-15T02:20:39.227Z,55.47
2023-04-15T02:23:06.918Z,49.38
2023-04-15T02:25:35.643Z,54.30
2023-04-15T02:28:03.382Z,59.92
2023-04-15T02:30:31.663Z,51.15
2023-04-15T02:33:00.360Z,52.97
2023-04-15T02:35:28.595Z,52.30
2023-04-15T02:37:57.555Z,52.28
2023-04-15T02:40:29.764Z,51.13
2023-04-15T02:42:57.912Z,53.97
2023-04-15T02:45:26.000Z,51.33
2023-04-15T02:47:56.911Z,55.88
2023-04-15T02:50:24.599Z,53.63
2023-04-15T02:52:53.192Z,49.65
2023-04-15T02:55:21.998Z,50.85
2023-04-15T02:57:49.657Z,51.97
2023-04-15T03:00:19.467Z,53.63
2023-04-15T03:02:48.442Z,48.40
2023-04-15T03:05:18.347Z,48.90
2023-04-15T03:07:46.191Z,50.15
2023-04-15T03:10:18.859Z,47.63
2023-04-15T03:12:51.054Z,47.83
2023-04-15T03:15:20.504Z,47.95
2023-04-15T03:17:52.647Z,51.38
2023-04-15T03:20:20.465Z,49.13
2023-04-15T03:22:54.794Z,47.15
2023-04-15T03:25:22.740Z,50.13
2023-04-15T03:27:51.392Z,51.55
2023-04-15T03:30:21.308Z,45.30
2023-04-15T03:32:49.761Z,44.95
2023-04-15T03:35:18.397Z,47.83
2023-04-15T03:37:47.455Z,47.05
2023-04-15T03:40:16.504Z,49.78
2023-04-15T03:42:44.553Z,46.97
2023-04-15T03:45:14.670Z,46.20
2023-04-15T03:47:43.360Z,46.45
2023-04-15T03:50:11.181Z,46.08
2023-04-15T03:52:41.272Z,47.30
2023-04-15T03:55:09.724Z,46.03
2023-04-15T03:57:40.864Z,47.85
2023-04-15T04:00:11.212Z,46.33
2023-04-15T04:02:47.769Z,45.17
2023-04-15T04:05:18.067Z,45.22
2023-04-15T04:07:48.733Z,46.10
2023-04-15T04:10:16.544Z,44.67
2023-04-15T04:12:45.400Z,50.50
2023-04-15T04:15:15.633Z,48.80
2023-04-15T04:17:43.524Z,47.78
2023-04-15T04:20:11.581Z,49.25
2023-04-15T04:22:40.548Z,47.30
2023-04-15T04:25:09.880Z,49.63
2023-04-15T04:27:38.861Z,45.40
2023-04-15T04:30:06.706Z,48.53
2023-04-15T04:32:34.355Z,44.55
2023-04-15T04:35:02.898Z,46.13
2023-04-15T04:37:33.024Z,43.90
2023-04-15T04:40:02.790Z,43.42
2023-04-15T04:42:31.582Z,42.03
2023-04-15T04:44:59.058Z,45.50
2023-04-15T04:47:26.848Z,44.90
2023-04-15T04:49:56.241Z,43.53
2023-04-15T04:52:23.846Z,44.22
2023-04-15T04:54:51.606Z,45.58
2023-04-15T04:57:20.489Z,45.38
2023-04-15T04:59:48.074Z,43.83
2023-04-15T05:02:15.792Z,42.42
2023-04-15T05:04:43.687Z,42.00
2023-04-15T05:07:11.394Z,43.22
2023-04-15T05:09:39.331Z,44.90
2023-04-15T05:12:07.436Z,44.10
2023-04-15T05:14:38.214Z,42.15
2023-04-15T05:17:05.959Z,41.33
2023-04-15T05:19:33.976Z,40.50
2023-04-15T05:22:01.572Z,42.67
2023-04-15T05:24:29.228Z,41.90
2023-04-15T05:26:57.992Z,39.92
2023-04-15T05:29:25.676Z,40.15
2023-04-15T05:31:53.407Z,40.95
2023-04-15T05:34:21.813Z,40.25
2023-04-15T05:36:49.443Z,40.67
2023-04-15T05:39:17.199Z,41.08
2023-04-15T05:41:45.029Z,39.83
2023-04-15T05:44:12.664Z,40.53
2023-04-15T05:46:41.007Z,41.42
2023-04-15T05:49:09.674Z,40.83
2023-04-15T05:51:37.290Z,39.45
2023-04-15T05:54:05.268Z,42.03
2023-04-15T05:56:33.263Z,41.17
2023-04-15T05:59:01.157Z,44.28
2023-04-15T06:01:29.114Z,40.75
2023-04-15T06:03:57.824Z,39.40
2023-04-15T06:06:25.524Z,38.13
2023-04-15T06:08:53.526Z,41.10
2023-04-15T06:11:21.412Z,41.30
2023-04-15T06:13:49.025Z,40.00
2023-04-15T06:16:17.583Z,39.53
2023-04-15T06:18:47.327Z,38.58
2023-04-15T06:21:15.128Z,41.00
2023-04-15T06:23:42.856Z,39.58
2023-04-15T06:26:11.477Z,39.38
2023-04-15T06:28:39.151Z,38.67
2023-04-15T06:31:07.223Z,39.33
2023-04-15T06:33:35.935Z,37.42
2023-04-15T06:36:03.937Z,37.53
2023-04-15T06:38:31.869Z,38.90
2023-04-15T06:40:59.791Z,39.15
2023-04-15T06:43:27.447Z,38.03
2023-04-15T06:45:55.163Z,37.80
2023-04-15T06:48:23.077Z,36.42
2023-04-15T06:50:50.916Z,38.55
2023-04-15T06:53:18.784Z,37.65
2023-04-15T06:55:46.664Z,42.15
2023-04-15T06:58:14.383Z,37.92
2023-04-15T07:00:42.258Z,36.83
2023-04-15T07:03:10.232Z,37.08
2023-04-15T07:05:37.831Z,38.03
2023-04-15T07:08:05.530Z,39.33
2023-04-15T07:10:33.650Z,38.15
2023-04-15T07:13:01.600Z,37.20
2023-04-15T07:15:29.236Z,37.15
2023-04-15T07:17:59.104Z,36.58
2023-04-15T07:20:26.951Z,37.08
2023-04-15T07:22:54.839Z,36.40
2023-04-15T07:25:22.906Z,38.35
2023-04-15T07:27:50.501Z,36.40
2023-04-15T07:30:18.353Z,36.10
2023-04-15T07:32:46.933Z,35.78
2023-04-15T07:35:14.532Z,35.50
2023-04-15T07:37:42.415Z,36.72
2023-04-15T07:40:10.330Z,41.47
2023-04-15T07:42:39.391Z,35.33
2023-04-15T07:45:08.538Z,35.75
2023-04-15T07:47:36.505Z,35.90
2023-04-15T07:50:04.166Z,35.80
2023-04-15T07:52:32.101Z,34.58
2023-04-15T07:54:59.996Z,35.50
2023-04-15T07:57:27.693Z,35.88
2023-04-15T07:59:55.341Z,34.72
2023-04-15T08:02:23.603Z,34.78
2023-04-15T08:04:51.631Z,35.03
2023-04-15T08:07:19.432Z,35.58
2023-04-15T08:09:47.368Z,33.60
2023-04-15T08:12:15.101Z,34.97
2023-04-15T08:14:42.906Z,34.53
2023-04-15T08:17:11.583Z,34.15
2023-04-15T08:19:39.378Z,34.20
2023-04-15T08:22:07.045Z,34.70
2023-04-15T08:24:43.705Z,35.15
2023-04-15T08:27:11.882Z,34.38
2023-04-15T08:29:39.609Z,33.95
2023-04-15T08:32:07.913Z,33.83
2023-04-15T08:34:35.768Z,35.83
2023-04-15T08:37:03.421Z,34.53
2023-04-15T08:39:31.270Z,34.80
2023-04-15T08:41:59.036Z,34.28
2023-04-15T08:44:26.630Z,36.28
2023-04-15T08:46:54.653Z,34.65
2023-04-15T08:49:22.581Z,37.38
2023-04-15T08:51:50.272Z,33.05
2023-04-15T08:54:18.102Z,33.83
2023-04-15T08:56:47.162Z,32.67
2023-04-15T08:59:15.756Z,32.78
2023-04-15T09:01:43.590Z,33.75
2023-04-15T09:04:11.510Z,32.85
2023-04-15T09:06:39.247Z,33.15
2023-04-15T09:09:08.210Z,33.53
2023-04-15T09:11:35.838Z,33.50
2023-04-15T09:14:03.859Z,34.33
2023-04-15T09:16:33.258Z,33.75
2023-04-15T09:19:05.420Z,32.88
2023-04-15T09:21:34.576Z,32.95
2023-04-15T09:24:02.630Z,34.05
2023-04-15T09:26:31.117Z,34.83
2023-04-15T09:28:59.326Z,33.88
2023-04-15T09:31:27.190Z,33.53
2023-04-15T09:33:55.129Z,36.22
2023-04-15T09:36:22.987Z,34.53
2023-04-15T09:38:51.497Z,35.78
2023-04-15T09:41:19.696Z,34.63
2023-04-15T09:43:47.649Z,36.70
2023-04-15T09:46:15.529Z,40.42
2023-04-15T09:48:43.372Z,37.00
2023-04-15T09:51:11.572Z,37.00
2023-04-15T09:53:39.110Z,35.33
2023-04-15T09:56:06.846Z,35.03
2023-04-15T09:58:35.319Z,36.22
2023-04-15T10:01:03.384Z,38.13
2023-04-15T10:03:31.213Z,42.22
2023-04-15T10:05:59.261Z,40.92
2023-04-15T10:08:26.857Z,40.63
2023-04-15T10:10:54.592Z,42.88
2023-04-15T10:13:22.559Z,37.78
2023-04-15T10:15:50.242Z,35.70
2023-04-15T10:18:18.319Z,36.00
2023-04-15T10:20:46.033Z,35.88
2023-04-15T10:23:13.671Z,38.17
2023-04-15T10:25:41.359Z,38.92
2023-04-15T10:28:09.038Z,36.53
2023-04-15T10:30:36.805Z,39.35
2023-04-15T10:33:04.804Z,82.82
2023-04-15T10:35:33.274Z,59.85
2023-04-15T10:38:00.838Z,66.93
2023-04-15T10:40:29.561Z,56.70
2023-04-15T10:42:57.751Z,42.35
2023-04-15T10:45:25.397Z,40.05
2023-04-15T10:47:53.077Z,47.33
2023-04-15T10:50:20.854Z,42.00
2023-04-15T10:52:48.471Z,42.97
2023-04-15T10:55:16.333Z,89.85
2023-04-15T10:57:44.283Z,44.83
2023-04-15T11:00:11.902Z,47.33
2023-04-15T11:02:39.791Z,43.25
2023-04-15T11:05:08.012Z,42.70
2023-04-15T11:07:35.654Z,41.83
2023-04-15T11:10:03.311Z,39.85
2023-04-15T11:12:31.004Z,44.42
2023-04-15T11:14:58.687Z,46.53
2023-04-15T11:17:27.206Z,43.67
2023-04-15T11:20:00.575Z,40.40
2023-04-15T11:22:28.556Z,42.67
2023-04-15T11:24:56.125Z,43.42
2023-04-15T11:27:24.115Z,48.35
2023-04-15T11:29:51.827Z,44.03
2023-04-15T11:32:19.644Z,41.47
2023-04-15T11:34:47.455Z,50.95
2023-04-15T11:37:15.382Z,53.20
2023-04-15T11:39:42.963Z,46.20
2023-04-15T11:42:10.724Z,44.47
2023-04-15T11:44:38.641Z,42.75
2023-04-15T11:47:06.353Z,41.85
2023-04-15T11:49:34.126Z,38.63
2023-04-15T11:52:01.699Z,41.67
2023-04-15T11:54:29.501Z,41.38
2023-04-15T11:56:57.372Z,39.42
2023-04-15T11:59:28.183Z,45.60
2023-04-15T12:02:00.559Z,40.78
2023-04-15T12:04:28.456Z,42.38
2023-04-15T12:06:56.610Z,43.17
2023-04-15T12:09:25.097Z,42.53
2023-04-15T12:11:52.767Z,44.83
2023-04-15T12:14:20.940Z,47.22
2023-04-15T12:16:51.625Z,40.55
2023-04-15T12:19:20.189Z,44.28
2023-04-15T12:21:47.853Z,44.42
2023-04-15T12:24:16.000Z,44.42
2023-04-15T12:26:44.924Z,42.20
2023-04-15T12:29:12.848Z,39.85
2023-04-15T12:31:41.866Z,44.70
2023-04-15T12:34:09.924Z,43.63
2023-04-15T12:36:37.836Z,45.45
2023-04-15T12:39:06.335Z,46.50
2023-04-15T12:41:34.371Z,43.85
2023-04-15T12:44:03.470Z,48.17
2023-04-15T12:46:33.361Z,48.47
2023-04-15T12:49:01.035Z,46.13
2023-04-15T12:51:28.761Z,42.88
2023-04-15T12:53:56.730Z,43.92
2023-04-15T12:56:24.551Z,45.10
2023-04-15T12:58:52.313Z,39.55
2023-04-15T13:01:20.459Z,45.25
2023-04-15T13:03:48.386Z,42.25
2023-04-15T13:06:16.131Z,40.63
2023-04-15T13:08:57.212Z,49.13
2023-04-15T13:11:26.800Z,45.97
2023-04-15T13:13:54.816Z,41.78
2023-04-15T13:16:22.457Z,41.53
2023-04-15T13:18:50.121Z,46.10
2023-04-15T13:21:18.041Z,46.40
2023-04-15T13:23:45.728Z,40.70
2023-04-15T13:26:13.372Z,45.40
2023-04-15T13:28:41.285Z,45.90
2023-04-15T13:31:09.007Z,48.13
2023-04-15T13:33:38.000Z,54.58
2023-04-15T13:36:06.212Z,48.53
2023-04-15T13:38:34.953Z,50.30
2023-04-15T13:41:03.434Z,44.78
2023-04-15T13:43:31.577Z,44.92
2023-04-15T13:45:59.214Z,43.10
2023-04-15T13:48:27.436Z,48.88
2023-04-15T13:50:55.986Z,40.53
2023-04-15T13:53:33.817Z,43.42
2023-04-15T13:56:06.764Z,46.47
2023-04-15T13:58:34.445Z,43.55
2023-04-15T14:01:04.722Z,45.55
2023-04-15T14:03:34.077Z,44.35
2023-04-15T14:06:02.220Z,37.75
2023-04-15T14:08:30.183Z,40.10
2023-04-15T14:10:58.495Z,38.90
2023-04-15T14:13:26.069Z,35.70
2023-04-15T14:15:53.846Z,37.45
2023-04-15T14:18:22.162Z,42.13
2023-04-15T14:20:49.956Z,42.67
2023-04-15T14:23:18.055Z,35.55
2023-04-15T14:25:48.184Z,40.33
2023-04-15T14:28:18.119Z,38.90
2023-04-15T14:30:46.074Z,36.92
2023-04-15T14:33:14.430Z,40.55
2023-04-15T14:35:42.575Z,38.17
2023-04-15T14:38:11.529Z,36.40
2023-04-15T14:40:39.798Z,38.85
2023-04-15T14:43:07.659Z,34.13
2023-04-15T14:45:36.368Z,37.20
2023-04-15T14:48:06.791Z,36.97
2023-04-15T14:50:34.590Z,36.15
2023-04-15T14:53:02.992Z,38.42
2023-04-15T14:55:32.202Z,39.47
2023-04-15T14:57:59.818Z,37.92
2023-04-15T15:00:27.947Z,36.65
2023-04-15T15:02:56.182Z,37.75
2023-04-15T15:05:24.173Z,39.92
2023-04-15T15:07:52.533Z,39.83
2023-04-15T15:10:33.119Z,35.10
2023-04-15T15:13:08.921Z,35.75
2023-04-15T15:15:37.700Z,39.00
2023-04-15T15:18:05.364Z,36.83
2023-04-15T15:20:33.067Z,35.15
2023-04-15T15:23:01.700Z,39.53
2023-04-15T15:25:29.344Z,36.60
2023-04-15T15:27:57.004Z,33.60
2023-04-15T15:30:25.780Z,35.97
2023-04-15T15:32:53.725Z,33.30
2023-04-15T15:35:21.628Z,32.35
2023-04-15T15:37:49.559Z,33.10
2023-04-15T15:40:17.356Z,33.35
2023-04-15T15:42:45.149Z,32.00
2023-04-15T15:45:13.116Z,32.10
2023-04-15T15:47:40.784Z,33.15
2023-04-15T15:50:08.421Z,32.60
2023-04-15T15:52:37.189Z,33.85
2023-04-15T15:55:04.758Z,32.65
2023-04-15T15:57:32.782Z,35.05
2023-04-15T16:00:10.448Z,32.42
2023-04-15T16:05:10.096Z,34.17
2023-04-15T16:07:38.226Z,31.85
2023-04-15T16:10:05.834Z,32.80
2023-04-15T16:12:35.014Z,39.63
2023-04-15T16:15:02.855Z,31.52
2023-04-15T16:17:30.891Z,31.05
2023-04-15T16:20:00.872Z,33.38
2023-04-15T16:22:29.064Z,32.97
2023-04-15T16:24:56.885Z,32.28
2023-04-15T16:27:24.806Z,31.70
2023-04-15T16:29:52.480Z,33.15
2023-04-15T16:32:20.654Z,33.67
2023-04-15T16:34:48.972Z,31.25
2023-04-15T16:37:16.538Z,36.38
2023-04-15T16:39:44.181Z,31.08
2023-04-15T16:42:12.109Z,31.73
2023-04-15T16:44:39.694Z,33.15
2023-04-15T16:47:07.707Z,30.55
2023-04-15T16:49:36.801Z,32.70
2023-04-15T16:52:04.397Z,31.50
2023-04-15T16:54:32.753Z,30.83
2023-04-15T16:57:01.284Z,31.38
2023-04-15T16:59:28.902Z,29.25
2023-04-15T17:01:57.047Z,29.98
2023-04-15T17:04:25.339Z,29.58
2023-04-15T17:06:53.044Z,28.88
2023-04-15T17:09:20.816Z,33.53
2023-04-15T17:11:51.545Z,30.42
2023-04-15T17:14:19.274Z,28.88
2023-04-15T17:16:47.020Z,28.35
2023-04-15T17:19:15.099Z,32.42
2023-04-15T17:21:42.709Z,28.75
2023-04-15T17:24:10.432Z,28.48
2023-04-15T17:26:38.234Z,29.75
2023-04-15T17:29:06.290Z,30.27
2023-04-15T17:31:34.279Z,28.60
2023-04-15T17:34:09.635Z,28.80
2023-04-15T17:36:46.217Z,33.17
2023-04-15T17:39:33.677Z,34.53
2023-04-15T17:42:01.891Z,30.10
2023-04-15T17:44:29.483Z,28.95
2023-04-15T17:46:57.348Z,31.02
2023-04-15T17:49:25.311Z,26.95
2023-04-15T17:51:52.925Z,30.15
2023-04-15T17:54:20.726Z,26.60
2023-04-15T17:56:48.442Z,28.00
2023-04-15T17:59:16.136Z,32.78
2023-04-15T18:01:43.963Z,29.90
2023-04-15T18:04:11.815Z,29.40
2023-04-15T18:06:40.044Z,29.05
2023-04-15T18:09:07.699Z,33.58
2023-04-15T18:11:35.290Z,29.95
2023-04-15T18:14:03.227Z,33.88
2023-04-15T18:16:31.494Z,30.75
2023-04-15T18:19:00.983Z,30.17
2023-04-15T18:21:39.233Z,27.60
2023-04-15T18:24:07.042Z,28.15
2023-04-15T18:26:35.729Z,29.65
2023-04-15T18:29:03.577Z,27.48
2023-04-15T18:31:32.278Z,27.23
2023-04-15T18:33:59.893Z,32.53
2023-04-15T18:36:27.716Z,26.73
2023-04-15T18:38:55.446Z,27.95
2023-04-15T18:41:23.182Z,26.98
2023-04-15T18:43:50.812Z,24.60
2023-04-15T18:46:18.443Z,26.33
2023-04-15T18:48:46.362Z,26.00
2023-04-15T18:51:14.128Z,24.20
2023-04-15T18:53:41.727Z,27.58
2023-04-15T18:56:09.354Z,23.60
2023-04-15T18:59:25.980Z,24.63
2023-04-15T19:01:24.744Z,20.63
2023-04-15T19:03:53.384Z,21.30
2023-04-15T19:06:21.037Z,21.33
2023-04-15T19:08:48.818Z,22.75
2023-04-15T19:11:16.599Z,21.52
2023-04-15T19:13:44.280Z,23.42
2023-04-15T19:16:12.092Z,23.17
2023-04-15T19:18:39.783Z,19.75
2023-04-15T19:21:07.377Z,21.50
2023-04-15T19:23:46.416Z,22.00
2023-04-15T19:26:14.212Z,21.40
2023-04-15T19:28:42.307Z,23.70
2023-04-15T19:31:10.484Z,20.65
2023-04-15T19:33:38.836Z,20.08
2023-04-15T19:36:06.771Z,19.70
2023-04-15T19:38:34.668Z,18.80
2023-04-15T19:41:02.228Z,19.88
2023-04-15T19:43:30.003Z,20.02
2023-04-15T19:45:57.706Z,19.45
2023-04-15T19:48:25.336Z,20.08
2023-04-15T19:50:52.910Z,23.00
2023-04-15T19:53:20.641Z,22.50
2023-04-15T19:55:48.496Z,21.20
2023-04-15T19:58:16.071Z,20.08
2023-04-15T20:00:43.766Z,18.88
2023-04-15T20:03:11.498Z,18.60
2023-04-15T20:05:39.223Z,19.92
2023-04-15T20:08:07.009Z,18.90
2023-04-15T20:10:34.650Z,18.88
2023-04-15T20:13:02.214Z,18.83
2023-04-15T20:15:30.161Z,20.25
2023-04-15T20:17:58.245Z,20.92
2023-04-15T20:20:26.876Z,18.15
2023-04-15T20:22:55.288Z,17.65
2023-04-15T20:25:23.172Z,18.52
2023-04-15T20:27:51.134Z,19.88
2023-04-15T20:30:19.272Z,18.83
2023-04-15T20:32:47.325Z,18.13
2023-04-15T20:35:15.031Z,19.23
2023-04-15T20:37:42.884Z,19.48
2023-04-15T20:40:10.566Z,18.90
2023-04-15T20:42:39.632Z,19.02
2023-04-15T20:45:08.529Z,21.77
2023-04-15T20:47:37.897Z,17.83
2023-04-15T20:50:06.311Z,18.63
2023-04-15T20:52:38.679Z,18.08
2023-04-15T20:55:07.403Z,18.45
2023-04-15T20:57:35.182Z,18.77
2023-04-15T21:00:02.870Z,19.25
2023-04-15T21:02:30.725Z,17.55
2023-04-15T21:04:58.418Z,19.45
2023-04-15T21:07:26.188Z,17.75
2023-04-15T21:09:53.777Z,17.83
2023-04-15T21:12:21.337Z,18.13
2023-04-15T21:14:49.088Z,21.30
2023-04-15T21:17:16.644Z,17.63
2023-04-15T21:19:44.220Z,21.30
2023-04-15T21:22:11.854Z,18.45
2023-04-15T21:24:39.531Z,16.67
2023-04-15T21:27:07.156Z,18.50
2023-04-15T21:29:35.010Z,18.58
2023-04-15T21:32:02.790Z,17.27
2023-04-15T21:34:30.418Z,19.35
2023-04-15T21:36:58.337Z,17.40
2023-04-15T21:39:25.988Z,19.10
2023-04-15T21:41:53.596Z,18.40
2023-04-15T21:44:22.516Z,18.20
2023-04-15T21:46:50.835Z,18.95
2023-04-15T21:49:19.040Z,17.13
2023-04-15T21:51:47.297Z,16.88
2023-04-15T21:54:15.326Z,18.10
2023-04-15T21:56:43.110Z,18.55
2023-04-15T21:59:11.461Z,20.08
2023-04-15T22:01:40.964Z,20.95
2023-04-15T22:04:09.838Z,20.08
2023-04-15T22:06:37.787Z,18.23
2023-04-15T22:09:05.627Z,19.98
2023-04-15T22:11:36.012Z,19.30
2023-04-15T22:14:03.836Z,16.52
2023-04-15T22:16:32.286Z,18.23
2023-04-15T22:19:01.004Z,16.63
2023-04-15T22:21:28.871Z,20.20
2023-04-15T22:24:37.975Z,16.52
2023-04-15T22:26:45.747Z,19.88
2023-04-15T22:29:14.098Z,22.02
2023-04-15T22:31:42.680Z,17.30
2023-04-15T22:34:10.948Z,20.27
2023-04-15T22:36:40.085Z,20.07
2023-04-15T22:39:08.522Z,18.02
2023-04-15T22:41:37.293Z,18.63
2023-04-15T22:44:05.067Z,18.92
2023-04-15T22:46:35.321Z,20.42
2023-04-15T22:49:04.036Z,21.98
2023-04-15T22:51:33.956Z,21.17
2023-04-15T22:54:01.748Z,38.08
2023-04-15T22:56:30.740Z,34.30
2023-04-15T22:58:58.434Z,27.83
2023-04-15T23:01:27.572Z,21.85
2023-04-15T23:04:05.582Z,18.88
2023-04-15T23:06:37.924Z,21.77
2023-04-15T23:09:06.515Z,16.90
2023-04-15T23:11:37.230Z,19.30
2023-04-15T23:14:10.426Z,20.65
2023-04-15T23:16:38.965Z,20.85
2023-04-15T23:19:09.077Z,20.15
2023-04-15T23:21:38.226Z,18.73
2023-04-15T23:24:06.052Z,22.67
2023-04-15T23:26:36.533Z,22.45
2023-04-15T23:29:04.734Z,20.10
2023-04-15T23:31:37.148Z,19.40
2023-04-15T23:34:04.821Z,23.02
2023-04-15T23:36:36.767Z,20.23
2023-04-15T23:39:05.042Z,20.98
2023-04-15T23:41:32.833Z,17.20
2023-04-15T23:44:03.244Z,17.45
2023-04-15T23:46:31.207Z,19.60
2023-04-15T23:49:03.224Z,17.85
2023-04-15T23:51:32.123Z,18.35
2023-04-15T23:54:00.542Z,20.88
2023-04-15T23:56:28.819Z,20.63
2023-04-15T23:58:58.902Z,22.83
